Pagina principale
METAR-TAF:

METAR-TAF

Aeroporti :

Grosseto, Italia

Aeroporto di Grosseto

latitudine: 42-45N, longitudine: 011-04E, altezza: 5 m

Osservazione

Il bollettino è stato emesso 1 ora e 4 minuti fa, alle 14:55 UTC
Vento 6 kt da sud/sud-ovest
Temperature 15°C
Umidità 67%
Pressione 1012 hPa
Visibilità 10 km o più
Poco nuvoloso ad un'altezza di 3000 ft
Nubi sparse ad un'altezza di 6000 ft

METAR: LIRS 191455Z 20006KT 9999 FEW030 SCT060 15/09 Q1012 RMK SCT VIS MIN 9999 WIND THR03 21005KT WIND THR21 21005KT BLU

Ora: 16:59 (15:59 UTC)

Previsione

Il bollettino è stato emesso 1 ora e 59 minuti fa, alle 14:00 UTC
Previsione valida dal 19 alle 15 UTC al 19 alle 24 UTC
Vento 6 kt da sud-ovest
Visibilità 10 km o più
Poco nuvoloso ad un'altezza di 2500 ft
Evoluzione graduale
dal 19 alle 20 UTC al 19 alle 22 UTC
Vento 8 kt da nord

TAF: LIRS 191400Z 1915/1924 22006KT 9999 FEW025 BECMG 1920/1922 01008KT

Osservazioni e previsioni meteorologiche di più di 4000 aeroporti (messaggi METAR e TAF).

Le stazioni disponibili sono rappresentate dai dischi gialli e rossi sulla carta.

Puntare il mouse per vedere il nome della stazione.

Clicca sopra per visualizzare le osservazioni e previsioni meteorologiche.

Per cambiare la mappa : fare clic sui pulsanti verdi con una croce nera per ingrandire, il pulsante verde con un trattino per diminuire, o sulla freccia verde per le mappe adiacenti.


METAR-TAF: